Time;durP1;ratioP1;P1;durP2;ratioP2;P2;SDS_P1;SDS_P2;PMS_P1;PMS_P2;Temp;Humidity;BMP_temperature;BMP_pressure;BME280_temperature;BME280_humidity;BME280_pressure;Samples;Min_cycle;Max_cycle;Signal;HPM_P1;HPM_P2
2022/08/30 00:01:05;;;;;;;7.03;4.90;;;16.50;99.90;;;;;;5090079;28;20039;-63
2022/08/30 00:03:45;;;;;;;9.05;4.93;;;16.50;99.90;;;;;;5074506;28;20047;-63
2022/08/30 00:06:13;;;;;;;6.38;4.57;;;16.50;99.90;;;;;;5092207;28;20111;-63
2022/08/30 00:08:39;;;;;;;7.93;4.90;;;16.50;99.90;;;;;;5092265;28;20048;-63
2022/08/30 00:11:08;;;;;;;8.90;5.40;;;16.50;99.90;;;;;;5091595;28;20742;-63
2022/08/30 00:13:40;;;;;;;7.05;4.82;;;16.50;99.90;;;;;;5092419;28;20033;-63
2022/08/30 00:16:06;;;;;;;8.23;5.13;;;16.40;99.90;;;;;;5074249;28;20040;-62
2022/08/30 00:18:33;;;;;;;6.55;4.72;;;16.40;99.90;;;;;;5092605;28;20036;-62
2022/08/30 00:20:59;;;;;;;7.97;4.78;;;16.40;99.90;;;;;;5080854;28;20047;-63
2022/08/30 00:23:25;;;;;;;8.90;5.10;;;16.40;99.90;;;;;;5092058;28;20376;-63
2022/08/30 00:25:51;;;;;;;8.55;5.10;;;16.30;99.90;;;;;;5091816;28;20097;-63
2022/08/30 00:28:17;;;;;;;7.40;5.05;;;16.40;99.90;;;;;;5074097;28;20416;-63
2022/08/30 00:30:44;;;;;;;7.28;5.30;;;16.40;99.90;;;;;;5091816;28;20067;-63
2022/08/30 00:33:10;;;;;;;8.00;4.95;;;16.30;99.90;;;;;;5090917;28;20097;-64
2022/08/30 00:35:37;;;;;;;7.95;5.22;;;16.40;99.90;;;;;;5092064;28;20040;-62
2022/08/30 00:38:06;;;;;;;7.68;5.68;;;16.30;99.90;;;;;;5074102;28;20044;-62
2022/08/30 00:40:32;;;;;;;9.13;5.50;;;16.30;99.90;;;;;;5073820;28;20036;-62
2022/08/30 00:42:59;;;;;;;8.95;5.40;;;16.20;99.90;;;;;;5083423;28;20036;-63
2022/08/30 00:45:34;;;;;;;7.88;5.40;;;16.10;99.90;;;;;;5077839;28;20123;-62
2022/08/30 00:48:00;;;;;;;7.90;5.28;;;16.10;99.90;;;;;;5078000;28;20043;-63
2022/08/30 00:50:34;;;;;;;8.30;5.53;;;16.10;99.90;;;;;;5077399;28;20365;-63
2022/08/30 00:53:04;;;;;;;8.10;5.85;;;16.00;99.90;;;;;;5095708;28;20048;-62
2022/08/30 00:55:32;;;;;;;8.85;6.00;;;16.00;99.90;;;;;;5095881;28;20039;-63
2022/08/30 00:58:00;;;;;;;7.78;5.20;;;16.00;99.90;;;;;;5081787;28;20035;-63
2022/08/30 01:00:26;;;;;;;9.57;6.20;;;16.00;99.90;;;;;;5077336;28;20108;-63
2022/08/30 01:02:52;;;;;;;10.40;6.82;;;16.00;99.90;;;;;;5077358;28;20076;-63
2022/08/30 01:05:19;;;;;;;8.73;6.10;;;16.00;99.90;;;;;;5077329;28;20080;-63
2022/08/30 01:07:44;;;;;;;8.27;5.93;;;15.90;99.90;;;;;;5077562;28;20397;-63
2022/08/30 01:10:12;;;;;;;9.40;5.82;;;15.90;99.90;;;;;;5075570;28;20056;-62
2022/08/30 01:12:40;;;;;;;7.95;6.32;;;15.90;99.90;;;;;;5075077;28;20059;-63
2022/08/30 01:15:07;;;;;;;12.25;6.35;;;15.80;99.90;;;;;;5074578;28;20040;-64
2022/08/30 01:17:34;;;;;;;8.68;5.90;;;15.80;99.90;;;;;;5076728;28;20081;-63
2022/08/30 01:20:05;;;;;;;11.80;6.38;;;15.90;99.90;;;;;;5094134;28;20036;-63
2022/08/30 01:22:49;;;;;;;9.23;5.97;;;15.80;99.90;;;;;;5077045;28;20039;-63
2022/08/30 01:25:23;;;;;;;7.25;5.78;;;15.80;99.90;;;;;;5081867;28;20349;-63
2022/08/30 01:27:57;;;;;;;8.88;6.20;;;15.80;99.90;;;;;;5094848;28;20046;-63
2022/08/30 01:30:23;;;;;;;10.05;6.60;;;15.70;99.90;;;;;;5094467;28;20468;-62
2022/08/30 01:32:55;;;;;;;8.43;6.10;;;15.70;99.90;;;;;;5076615;28;20048;-62
2022/08/30 01:35:21;;;;;;;7.72;5.88;;;15.70;99.90;;;;;;5094750;28;20111;-63
2022/08/30 01:37:47;;;;;;;8.63;6.25;;;15.60;99.90;;;;;;5077040;28;20189;-62
2022/08/30 01:40:15;;;;;;;7.85;5.80;;;15.70;99.90;;;;;;5076564;28;20047;-62
2022/08/30 01:42:40;;;;;;;8.23;5.97;;;15.60;99.90;;;;;;5094824;28;20043;-62
2022/08/30 01:45:07;;;;;;;8.15;6.10;;;15.60;99.90;;;;;;5094817;28;20059;-63
2022/08/30 01:47:34;;;;;;;7.95;5.90;;;15.60;99.90;;;;;;5076785;28;20468;-63
2022/08/30 01:49:59;;;;;;;7.63;6.13;;;15.60;99.90;;;;;;5076574;28;20178;-63
2022/08/30 01:52:25;;;;;;;7.97;5.88;;;15.60;99.90;;;;;;5093713;28;20115;-62
2022/08/30 01:54:52;;;;;;;7.95;5.93;;;15.50;99.90;;;;;;5094485;28;20361;-62
2022/08/30 01:57:21;;;;;;;7.72;5.57;;;15.50;99.90;;;;;;5094093;28;20396;-62
2022/08/30 01:59:49;;;;;;;9.65;6.40;;;15.50;99.90;;;;;;5094459;28;20046;-64
2022/08/30 02:02:21;;;;;;;8.95;6.00;;;15.50;99.90;;;;;;5094314;28;20461;-63
2022/08/30 02:04:48;;;;;;;8.60;5.72;;;15.50;99.90;;;;;;5080899;28;20093;-62
2022/08/30 02:07:15;;;;;;;8.00;5.85;;;15.50;99.90;;;;;;5097504;28;20772;-63
2022/08/30 02:09:41;;;;;;;8.45;6.10;;;15.50;99.90;;;;;;5092594;28;20366;-63
2022/08/30 02:12:07;;;;;;;7.40;5.78;;;15.50;99.90;;;;;;5094163;28;20126;-62
2022/08/30 02:14:37;;;;;;;7.47;5.78;;;15.40;99.90;;;;;;5093953;28;20044;-62
2022/08/30 02:17:04;;;;;;;7.40;5.72;;;15.40;99.90;;;;;;5076033;28;20047;-62
2022/08/30 02:19:30;;;;;;;8.10;5.90;;;15.40;99.90;;;;;;5076388;28;20036;-62
2022/08/30 02:21:56;;;;;;;7.78;5.47;;;15.40;99.90;;;;;;5093785;28;20047;-62
2022/08/30 02:24:22;;;;;;;7.95;5.82;;;15.30;99.90;;;;;;5094224;28;20100;-62
2022/08/30 02:26:48;;;;;;;9.60;5.82;;;15.40;99.90;;;;;;5075911;28;20055;-63
2022/08/30 02:29:14;;;;;;;7.78;6.03;;;15.40;99.90;;;;;;5075838;28;20071;-63
2022/08/30 02:31:39;;;;;;;8.18;5.50;;;15.30;99.90;;;;;;5075751;28;20059;-62
2022/08/30 02:34:05;;;;;;;8.05;5.72;;;15.30;99.90;;;;;;5075974;28;20040;-62
2022/08/30 02:36:31;;;;;;;7.13;5.55;;;15.30;99.90;;;;;;5101954;28;20051;-62
2022/08/30 02:38:57;;;;;;;8.55;5.80;;;15.20;99.90;;;;;;5093274;28;20032;-63
2022/08/30 02:41:22;;;;;;;6.93;5.75;;;15.20;99.90;;;;;;5075823;28;20040;-63
2022/08/30 02:43:49;;;;;;;7.70;5.53;;;15.20;99.90;;;;;;5093515;28;20043;-62
2022/08/30 02:46:16;;;;;;;9.00;5.47;;;15.20;99.90;;;;;;5075485;28;20048;-63
2022/08/30 02:48:42;;;;;;;9.85;5.65;;;15.20;99.90;;;;;;5093560;28;20082;-62
2022/08/30 02:51:10;;;;;;;8.80;5.97;;;15.20;99.90;;;;;;5093582;28;20035;-63
2022/08/30 02:53:36;;;;;;;8.90;6.30;;;15.20;99.90;;;;;;5093500;28;20048;-63
2022/08/30 02:56:03;;;;;;;8.20;6.57;;;15.20;99.90;;;;;;5093095;28;20047;-63
2022/08/30 02:58:28;;;;;;;8.35;6.55;;;15.20;99.90;;;;;;5093039;28;20146;-62
2022/08/30 03:00:55;;;;;;;8.23;6.68;;;15.10;99.90;;;;;;5093276;28;20067;-63
2022/08/30 03:03:21;;;;;;;9.43;6.53;;;15.10;99.90;;;;;;5075394;28;20133;-61
2022/08/30 03:05:47;;;;;;;8.25;5.80;;;15.00;99.90;;;;;;5064285;28;20083;-63
2022/08/30 03:08:14;;;;;;;9.00;6.30;;;15.00;99.90;;;;;;5093001;28;20040;-63
2022/08/30 03:10:39;;;;;;;10.02;6.35;;;15.00;99.90;;;;;;5092836;28;20039;-62
2022/08/30 03:13:08;;;;;;;7.50;5.85;;;14.90;99.90;;;;;;5074855;28;20054;-64
2022/08/30 03:15:36;;;;;;;8.70;5.60;;;15.00;99.90;;;;;;5074756;28;20040;-62
2022/08/30 03:18:02;;;;;;;10.45;6.13;;;15.00;99.90;;;;;;5075386;28;20372;-62
2022/08/30 03:20:28;;;;;;;7.40;6.18;;;15.00;99.90;;;;;;5075119;28;20411;-62
2022/08/30 03:22:54;;;;;;;7.60;6.80;;;15.00;99.90;;;;;;5092708;28;20048;-62
2022/08/30 03:25:21;;;;;;;9.05;6.53;;;14.90;99.90;;;;;;5074696;28;20353;-62
2022/08/30 03:27:49;;;;;;;8.35;6.25;;;14.90;99.90;;;;;;5075254;28;20058;-63
2022/08/30 03:30:17;;;;;;;9.43;6.00;;;15.00;99.90;;;;;;5092732;28;20097;-63
2022/08/30 03:32:43;;;;;;;6.68;5.50;;;14.90;99.90;;;;;;5074878;28;20123;-62
2022/08/30 03:35:10;;;;;;;9.52;6.03;;;14.90;99.90;;;;;;5092968;28;20119;-62
2022/08/30 03:37:35;;;;;;;8.02;5.53;;;14.90;99.90;;;;;;5074751;28;20035;-62
2022/08/30 03:40:06;;;;;;;8.05;5.75;;;14.90;99.90;;;;;;5092471;28;20044;-63
2022/08/30 03:42:31;;;;;;;9.63;5.65;;;14.90;99.90;;;;;;5074693;28;20040;-62
2022/08/30 03:44:57;;;;;;;7.78;5.55;;;14.80;99.90;;;;;;5074956;28;20435;-62
2022/08/30 03:47:23;;;;;;;8.80;6.10;;;14.80;99.90;;;;;;5108542;28;20051;-62
2022/08/30 03:49:48;;;;;;;7.50;5.60;;;14.80;99.90;;;;;;5092468;28;20416;-64
2022/08/30 03:52:14;;;;;;;7.97;5.70;;;14.80;99.90;;;;;;5074392;28;20461;-63
2022/08/30 03:54:39;;;;;;;7.15;5.80;;;14.80;99.90;;;;;;5108293;28;20111;-62
2022/08/30 03:57:05;;;;;;;7.80;5.65;;;14.80;99.90;;;;;;5092602;28;20073;-62
2022/08/30 03:59:31;;;;;;;10.52;5.75;;;14.80;99.90;;;;;;5092404;28;20356;-63
2022/08/30 04:01:57;;;;;;;7.47;5.88;;;14.70;99.90;;;;;;5071475;28;20052;-63
2022/08/30 04:04:24;;;;;;;8.20;5.30;;;14.70;99.90;;;;;;5089797;28;20035;-63
2022/08/30 04:06:50;;;;;;;7.00;5.47;;;14.70;99.90;;;;;;5092573;28;20079;-62
2022/08/30 04:09:16;;;;;;;7.50;5.47;;;14.60;99.90;;;;;;5091960;28;20148;-63
2022/08/30 04:11:42;;;;;;;7.68;5.10;;;14.70;99.90;;;;;;5092698;28;20032;-62
2022/08/30 04:14:07;;;;;;;7.28;5.65;;;14.60;99.90;;;;;;5074325;28;20052;-62
2022/08/30 04:16:33;;;;;;;7.85;5.65;;;14.60;99.90;;;;;;5076150;28;20067;-62
2022/08/30 04:18:59;;;;;;;7.30;5.97;;;14.60;99.90;;;;;;5096265;28;20111;-62
2022/08/30 04:21:25;;;;;;;8.82;5.93;;;14.70;99.90;;;;;;5078421;28;20177;-63
2022/08/30 04:23:50;;;;;;;10.27;6.10;;;14.60;99.90;;;;;;5096295;28;20046;-62
2022/08/30 04:26:16;;;;;;;6.63;5.45;;;14.60;99.90;;;;;;5095973;28;20051;-62
2022/08/30 04:28:42;;;;;;;10.50;5.68;;;14.60;99.90;;;;;;5078201;28;20028;-62
2022/08/30 04:31:13;;;;;;;10.27;6.15;;;14.60;99.90;;;;;;5078324;28;20035;-62
2022/08/30 04:33:40;;;;;;;9.38;6.22;;;14.50;99.90;;;;;;5096131;28;20357;-62
2022/08/30 04:36:07;;;;;;;9.68;6.35;;;14.60;99.90;;;;;;5094936;28;20040;-65
2022/08/30 04:38:35;;;;;;;9.88;5.95;;;14.50;99.90;;;;;;5095525;28;20098;-63
2022/08/30 04:41:02;;;;;;;8.38;6.13;;;14.40;99.90;;;;;;5077779;28;20040;-63
2022/08/30 04:43:27;;;;;;;11.00;6.47;;;14.50;99.90;;;;;;5078083;28;20445;-63
2022/08/30 04:45:54;;;;;;;7.20;5.90;;;14.40;99.90;;;;;;5077880;28;20046;-64
2022/08/30 04:48:23;;;;;;;7.50;6.03;;;14.50;99.90;;;;;;5095746;28;20494;-63
2022/08/30 04:50:49;;;;;;;8.55;5.95;;;14.40;99.90;;;;;;5077623;28;20031;-63
2022/08/30 04:53:15;;;;;;;8.77;6.13;;;14.40;99.90;;;;;;5078092;28;20036;-62
2022/08/30 04:55:42;;;;;;;8.30;6.47;;;14.40;99.90;;;;;;5077439;28;20036;-62
2022/08/30 04:58:08;;;;;;;10.02;5.78;;;14.40;99.90;;;;;;5094652;28;20468;-62
2022/08/30 05:00:36;;;;;;;9.18;6.13;;;14.40;99.90;;;;;;5094195;28;20081;-62
2022/08/30 05:03:02;;;;;;;10.02;6.07;;;14.40;99.90;;;;;;5076705;28;20377;-64
2022/08/30 05:05:40;;;;;;;7.40;5.80;;;14.40;99.90;;;;;;5093917;28;20036;-62
2022/08/30 05:08:14;;;;;;;8.55;6.43;;;14.40;99.90;;;;;;5094196;28;20032;-64
2022/08/30 05:10:43;;;;;;;9.98;6.32;;;14.40;99.90;;;;;;5084579;28;20044;-62
2022/08/30 05:13:09;;;;;;;9.27;6.80;;;14.50;99.90;;;;;;5077986;28;20036;-62
2022/08/30 05:15:36;;;;;;;7.70;6.18;;;14.40;99.90;;;;;;5075513;28;20039;-62
2022/08/30 05:18:06;;;;;;;9.52;7.15;;;14.50;99.90;;;;;;5094585;28;20054;-62
2022/08/30 05:20:34;;;;;;;10.70;6.45;;;14.40;99.90;;;;;;5093001;28;20036;-63
2022/08/30 05:23:00;;;;;;;10.10;6.57;;;14.40;99.90;;;;;;5080079;28;20039;-64
2022/08/30 05:25:30;;;;;;;8.63;6.18;;;14.30;99.90;;;;;;5094083;28;20418;-64
2022/08/30 05:27:56;;;;;;;9.10;6.72;;;14.40;99.90;;;;;;5066755;28;20040;-64
2022/08/30 05:30:23;;;;;;;9.77;6.72;;;14.40;99.90;;;;;;5094780;28;20081;-64
2022/08/30 05:32:50;;;;;;;10.05;7.28;;;14.50;99.90;;;;;;5076829;28;20066;-63
2022/08/30 05:35:17;;;;;;;11.73;6.68;;;14.40;99.90;;;;;;5094831;28;20040;-63
2022/08/30 05:37:44;;;;;;;10.20;6.45;;;14.40;99.90;;;;;;5094594;28;20111;-62
2022/08/30 05:40:12;;;;;;;10.75;6.60;;;14.40;99.90;;;;;;5094458;28;20085;-63
2022/08/30 05:42:40;;;;;;;9.85;6.60;;;14.60;99.90;;;;;;5075995;28;20046;-62
2022/08/30 05:45:07;;;;;;;12.95;5.93;;;14.70;99.90;;;;;;5108459;28;20070;-62
2022/08/30 05:47:32;;;;;;;11.05;6.57;;;14.80;99.90;;;;;;5080801;28;20039;-62
2022/08/30 05:49:58;;;;;;;10.88;6.22;;;14.80;99.90;;;;;;5101583;28;20042;-62
2022/08/30 05:52:24;;;;;;;11.52;6.20;;;15.30;99.90;;;;;;5079120;28;20408;-62
2022/08/30 05:54:54;;;;;;;9.73;5.75;;;16.00;99.90;;;;;;5063781;28;20074;-62
2022/08/30 05:57:20;;;;;;;8.35;6.05;;;16.90;99.90;;;;;;5076494;28;20323;-62
2022/08/30 05:59:46;;;;;;;7.90;5.55;;;17.60;99.90;;;;;;5105272;28;20054;-62
2022/08/30 06:02:12;;;;;;;9.98;5.22;;;18.20;99.90;;;;;;5094571;28;20434;-62
2022/08/30 06:04:37;;;;;;;8.93;5.22;;;18.70;99.90;;;;;;5099662;28;20126;-63
2022/08/30 06:07:04;;;;;;;8.82;4.85;;;19.00;99.90;;;;;;5110296;28;20063;-62
2022/08/30 06:09:30;;;;;;;10.43;4.78;;;19.30;99.90;;;;;;5090628;28;20082;-63
2022/08/30 06:11:56;;;;;;;11.02;4.85;;;19.60;99.90;;;;;;5094356;28;20059;-63
2022/08/30 06:14:23;;;;;;;6.40;4.65;;;19.70;99.90;;;;;;5076178;28;20036;-62
2022/08/30 06:16:50;;;;;;;7.13;4.22;;;19.90;99.90;;;;;;5091931;28;20304;-64
2022/08/30 06:19:17;;;;;;;5.88;4.30;;;20.10;99.90;;;;;;5096780;28;20032;-62
2022/08/30 06:21:46;;;;;;;8.15;4.65;;;20.40;99.90;;;;;;5076446;28;20093;-63
2022/08/30 06:24:12;;;;;;;7.88;4.10;;;20.60;99.90;;;;;;5094728;28;20036;-62
2022/08/30 06:26:40;;;;;;;5.70;3.92;;;20.70;99.90;;;;;;5094193;28;20043;-61
2022/08/30 06:29:08;;;;;;;6.75;4.20;;;20.70;99.90;;;;;;5093589;28;20119;-63
2022/08/30 06:31:34;;;;;;;6.40;5.00;;;20.80;99.90;;;;;;5092991;28;20111;-62
2022/08/30 06:33:59;;;;;;;7.15;4.63;;;20.60;99.90;;;;;;5094737;28;20114;-62
2022/08/30 06:36:26;;;;;;;7.75;4.30;;;20.60;99.90;;;;;;5090687;28;20122;-61
2022/08/30 06:38:53;;;;;;;7.38;4.22;;;20.70;99.90;;;;;;5075447;28;20044;-62
2022/08/30 06:41:22;;;;;;;5.72;4.35;;;20.90;99.90;;;;;;5094307;28;20241;-62
2022/08/30 06:43:48;;;;;;;7.03;4.28;;;21.00;99.90;;;;;;5093611;28;20036;-62
2022/08/30 06:46:17;;;;;;;9.45;4.32;;;21.00;99.90;;;;;;5076496;28;20385;-62
2022/08/30 06:48:43;;;;;;;7.72;3.88;;;21.00;99.90;;;;;;5093878;28;20108;-61
2022/08/30 06:51:09;;;;;;;5.75;3.90;;;20.90;99.90;;;;;;5075684;28;20483;-61
2022/08/30 06:53:35;;;;;;;7.47;3.83;;;21.10;99.90;;;;;;5093824;28;20031;-61
2022/08/30 06:56:02;;;;;;;5.95;4.22;;;21.20;99.90;;;;;;5092952;28;20028;-62
2022/08/30 06:58:31;;;;;;;7.28;3.90;;;21.20;99.90;;;;;;5092827;28;20492;-63
2022/08/30 07:00:57;;;;;;;6.78;3.85;;;21.00;99.90;;;;;;5094078;28;20047;-62
2022/08/30 07:03:24;;;;;;;7.43;3.67;;;20.90;99.90;;;;;;5074423;28;20083;-61
2022/08/30 07:05:50;;;;;;;7.00;3.90;;;21.00;99.90;;;;;;5092450;28;20426;-63
2022/08/30 07:08:16;;;;;;;6.85;3.83;;;20.90;99.90;;;;;;5075107;28;20060;-61
2022/08/30 07:10:42;;;;;;;6.25;4.00;;;21.00;99.90;;;;;;5093553;28;20055;-60
2022/08/30 07:13:08;;;;;;;5.72;3.40;;;21.40;99.90;;;;;;5093098;28;20044;-61
2022/08/30 07:15:35;;;;;;;4.78;3.00;;;21.30;99.90;;;;;;5092771;28;20040;-61
2022/08/30 07:20:44;;;;;;;6.78;3.50;;;20.60;99.90;;;;;;5092663;28;20048;-61
2022/08/30 07:23:13;;;;;;;5.55;3.40;;;20.10;99.90;;;;;;5092499;28;20036;-62
2022/08/30 07:25:40;;;;;;;8.27;3.72;;;20.10;99.90;;;;;;5092388;28;20354;-62
2022/08/30 07:28:06;;;;;;;7.10;3.35;;;20.00;99.90;;;;;;5092679;28;20048;-61
2022/08/30 07:30:33;;;;;;;4.97;3.25;;;20.00;99.90;;;;;;5091822;28;20421;-61
2022/08/30 07:32:59;;;;;;;6.20;2.90;;;19.90;99.90;;;;;;5092864;28;20206;-61
2022/08/30 07:35:25;;;;;;;4.53;2.67;;;19.90;99.90;;;;;;5092636;28;20040;-62
2022/08/30 07:37:51;;;;;;;5.20;2.80;;;20.00;99.90;;;;;;5092461;28;20079;-62
2022/08/30 07:40:17;;;;;;;7.55;2.95;;;20.00;99.90;;;;;;5092295;28;20064;-60
2022/08/30 07:42:43;;;;;;;5.72;3.00;;;20.00;99.90;;;;;;5092618;28;20472;-61
2022/08/30 07:45:10;;;;;;;4.63;2.42;;;20.00;99.90;;;;;;5092532;28;20036;-61
2022/08/30 07:47:36;;;;;;;5.55;2.95;;;20.10;99.90;;;;;;5091501;28;20036;-61
2022/08/30 07:50:04;;;;;;;4.85;2.45;;;20.10;99.90;;;;;;5092038;28;20028;-61
2022/08/30 07:52:29;;;;;;;4.30;2.20;;;20.30;99.90;;;;;;5095224;28;20525;-61
2022/08/30 07:54:56;;;;;;;4.40;2.45;;;20.30;99.90;;;;;;5096554;28;20114;-61
2022/08/30 07:57:23;;;;;;;6.65;2.10;;;20.20;99.90;;;;;;5096035;28;20040;-60
2022/08/30 07:59:49;;;;;;;3.67;1.98;;;20.10;99.90;;;;;;5096114;28;20069;-61
2022/08/30 08:02:14;;;;;;;4.53;1.90;;;20.00;99.90;;;;;;5096099;28;20039;-61
2022/08/30 08:04:40;;;;;;;5.88;1.90;;;20.10;99.90;;;;;;5096028;28;20042;-60
2022/08/30 08:07:06;;;;;;;3.83;1.67;;;20.20;99.90;;;;;;5087306;28;20060;-61
2022/08/30 08:09:32;;;;;;;4.20;1.70;;;20.30;99.90;;;;;;5095164;28;20105;-61
2022/08/30 08:11:59;;;;;;;2.15;1.30;;;20.30;99.90;;;;;;5095556;28;20043;-61
2022/08/30 08:14:25;;;;;;;4.25;1.40;;;20.30;99.90;;;;;;5095781;28;20112;-61
2022/08/30 08:16:51;;;;;;;4.28;1.70;;;20.20;99.90;;;;;;5095619;28;20449;-61
2022/08/30 08:19:18;;;;;;;2.97;1.42;;;20.30;99.90;;;;;;5095664;28;20035;-61
2022/08/30 08:21:44;;;;;;;2.70;1.60;;;20.30;99.90;;;;;;5094765;28;20537;-61
2022/08/30 08:24:09;;;;;;;3.35;1.70;;;20.40;99.90;;;;;;5077362;28;20123;-61
2022/08/30 08:26:37;;;;;;;3.72;1.38;;;20.40;99.90;;;;;;5095549;28;20036;-61
2022/08/30 08:29:04;;;;;;;4.32;1.50;;;20.60;99.90;;;;;;5080860;28;20100;-62
2022/08/30 08:31:30;;;;;;;3.42;1.50;;;20.60;99.90;;;;;;5095375;28;20047;-61
2022/08/30 08:33:58;;;;;;;3.45;1.92;;;20.60;99.90;;;;;;5095457;28;20036;-61
2022/08/30 08:36:25;;;;;;;2.95;1.30;;;20.70;99.90;;;;;;5095337;28;20112;-62
2022/08/30 08:38:52;;;;;;;2.92;1.52;;;20.90;99.90;;;;;;5094716;28;20121;-61
2022/08/30 08:41:39;;;;;;;3.70;1.95;;;20.90;99.90;;;;;;5095545;28;20032;-62
2022/08/30 08:44:32;;;;;;;4.07;1.58;;;21.00;99.90;;;;;;5095297;28;20040;-61
2022/08/30 08:47:23;;;;;;;4.07;1.75;;;21.10;99.90;;;;;;5094842;28;20441;-61
2022/08/30 08:49:54;;;;;;;3.25;1.33;;;21.10;99.90;;;;;;5083990;28;20044;-62
2022/08/30 08:55:32;;;;;;;3.40;1.65;;;20.90;99.90;;;;;;5094942;28;20039;-62
2022/08/30 08:57:58;;;;;;;5.68;1.50;;;20.80;99.90;;;;;;5073270;28;20358;-61
2022/08/30 09:00:23;;;;;;;3.88;1.60;;;20.90;99.90;;;;;;5087332;28;20035;-61
2022/08/30 09:03:01;;;;;;;3.53;1.80;;;21.10;99.90;;;;;;5095058;28;20057;-63
2022/08/30 09:05:36;;;;;;;3.20;1.60;;;21.20;99.90;;;;;;5095142;28;20036;-61
2022/08/30 09:08:05;;;;;;;4.90;2.33;;;21.20;99.90;;;;;;5093482;28;20036;-61
2022/08/30 09:10:32;;;;;;;3.42;1.73;;;21.20;99.90;;;;;;5095168;28;20119;-61
2022/08/30 09:12:58;;;;;;;3.85;1.83;;;21.10;99.90;;;;;;5094881;28;20044;-61
2022/08/30 09:15:31;;;;;;;3.63;1.90;;;21.20;99.90;;;;;;5094941;28;20036;-62
2022/08/30 09:18:06;;;;;;;3.93;1.70;;;21.30;99.90;;;;;;5094261;28;20032;-62
2022/08/30 09:20:37;;;;;;;2.78;1.42;;;21.30;99.90;;;;;;5094815;28;20278;-62
2022/08/30 09:23:31;;;;;;;3.67;1.45;;;21.30;99.90;;;;;;5094382;28;20048;-61
2022/08/30 09:26:04;;;;;;;4.32;1.80;;;21.40;99.90;;;;;;5094138;28;20039;-62
2022/08/30 09:28:33;;;;;;;3.65;1.80;;;21.50;99.90;;;;;;5094191;28;20054;-62
2022/08/30 09:31:00;;;;;;;2.17;1.42;;;21.60;99.90;;;;;;5076601;28;20048;-62
2022/08/30 09:33:26;;;;;;;2.70;1.67;;;21.60;99.90;;;;;;5094694;28;20085;-62
2022/08/30 09:35:53;;;;;;;3.03;1.55;;;21.70;99.50;;;;;;5094244;28;20118;-62
2022/08/30 09:38:32;;;;;;;1.77;1.40;;;21.70;99.90;;;;;;5094178;28;20040;-62
2022/08/30 09:41:01;;;;;;;2.55;1.83;;;21.80;99.80;;;;;;5080361;28;20043;-62
2022/08/30 09:43:30;;;;;;;3.63;1.60;;;21.90;99.60;;;;;;5094370;28;20036;-61
2022/08/30 09:45:59;;;;;;;2.97;1.83;;;21.90;99.30;;;;;;5093928;28;20055;-62
2022/08/30 09:48:38;;;;;;;4.13;1.60;;;21.90;99.10;;;;;;5094036;28;20114;-61
2022/08/30 09:51:09;;;;;;;7.45;1.77;;;21.90;99.10;;;;;;5094178;28;20043;-61
2022/08/30 09:54:06;;;;;;;6.00;1.88;;;22.00;98.70;;;;;;5094266;28;20051;-61
2022/08/30 09:57:00;;;;;;;2.88;1.52;;;22.00;98.80;;;;;;5090204;28;20055;-61
2022/08/30 09:59:53;;;;;;;3.75;1.70;;;22.00;98.60;;;;;;5093311;28;20036;-62
2022/08/30 10:02:35;;;;;;;3.08;1.73;;;22.20;97.90;;;;;;5076248;28;20082;-62
2022/08/30 10:05:14;;;;;;;2.28;1.45;;;22.20;97.80;;;;;;5081854;28;20488;-62
2022/08/30 10:07:52;;;;;;;2.95;1.90;;;22.20;97.50;;;;;;5075517;28;20042;-63
2022/08/30 10:10:40;;;;;;;4.32;1.80;;;22.20;98.00;;;;;;5093934;28;20369;-62
2022/08/30 10:13:30;;;;;;;3.78;1.60;;;22.20;98.10;;;;;;5093569;28;20119;-62
2022/08/30 10:16:33;;;;;;;5.35;2.00;;;22.30;97.40;;;;;;5093232;28;20040;-61
2022/08/30 10:19:22;;;;;;;3.33;1.60;;;22.20;97.40;;;;;;5090225;28;20036;-60
2022/08/30 10:21:57;;;;;;;4.07;1.75;;;22.30;96.80;;;;;;5092923;28;20043;-62
2022/08/30 10:24:29;;;;;;;2.75;1.65;;;22.30;97.00;;;;;;5093191;28;20046;-61
2022/08/30 10:27:04;;;;;;;3.17;1.38;;;22.30;97.50;;;;;;5073617;28;20052;-61
2022/08/30 10:29:41;;;;;;;3.30;1.38;;;22.30;96.60;;;;;;5092075;28;20039;-62
2022/08/30 10:32:14;;;;;;;2.75;1.60;;;22.40;96.70;;;;;;5091502;28;20407;-62
2022/08/30 10:34:47;;;;;;;2.93;1.40;;;22.60;96.60;;;;;;5092685;28;20035;-61
2022/08/30 10:37:18;;;;;;;3.60;1.63;;;22.60;96.20;;;;;;5074077;28;20055;-62
2022/08/30 10:39:51;;;;;;;2.20;1.50;;;22.50;96.60;;;;;;5090872;28;20051;-61
2022/08/30 10:42:31;;;;;;;3.40;1.50;;;22.50;97.00;;;;;;5074463;28;20032;-61
2022/08/30 10:45:09;;;;;;;2.42;1.58;;;22.60;96.90;;;;;;5091759;28;20468;-62
2022/08/30 10:48:01;;;;;;;3.75;1.20;;;22.60;95.50;;;;;;5091592;28;20035;-62
2022/08/30 10:50:41;;;;;;;3.20;1.48;;;22.80;95.80;;;;;;5092064;28;20085;-61
2022/08/30 10:53:31;;;;;;;2.85;1.50;;;22.70;95.60;;;;;;5091954;28;20036;-61
2022/08/30 10:56:06;;;;;;;2.97;1.45;;;22.80;95.80;;;;;;5090505;28;20032;-61
2022/08/30 10:58:32;;;;;;;4.53;1.50;;;23.00;95.60;;;;;;5092518;28;20056;-63
2022/08/30 11:01:16;;;;;;;4.32;1.50;;;22.80;95.90;;;;;;5057225;28;20040;-62
2022/08/30 11:04:00;;;;;;;;;;;22.90;95.50;;;;;;5093329;28;20032;-62
2022/08/30 11:06:31;;;;;;;4.10;1.25;;;22.90;95.50;;;;;;5092068;28;19963;-61
2022/08/30 11:09:35;;;;;;;4.95;1.50;;;22.90;95.80;;;;;;5091982;28;20055;-61
2022/08/30 11:12:20;;;;;;;4.18;1.50;;;23.00;95.80;;;;;;5064064;28;20483;-61
2022/08/30 11:14:46;;;;;;;5.68;1.65;;;23.10;95.50;;;;;;5092108;28;20362;-62
2022/08/30 11:17:42;;;;;;;2.88;1.55;;;23.30;95.10;;;;;;5092243;28;20040;-62
2022/08/30 11:20:27;;;;;;;2.65;1.30;;;23.30;95.00;;;;;;5091128;28;20508;-62
2022/08/30 11:23:28;;;;;;;4.90;1.50;;;23.30;95.00;;;;;;5092387;28;20036;-61
2022/08/30 11:26:41;;;;;;;2.88;1.33;;;23.30;94.80;;;;;;5065396;28;20059;-61
2022/08/30 11:29:07;;;;;;;3.20;1.35;;;23.20;95.20;;;;;;5078724;28;20087;-62
2022/08/30 11:31:36;;;;;;;3.28;1.50;;;23.20;94.80;;;;;;5092169;28;20087;-62
2022/08/30 11:34:02;;;;;;;3.55;1.70;;;23.10;95.00;;;;;;5092005;28;20040;-62
2022/08/30 11:36:28;;;;;;;2.10;1.30;;;23.20;95.30;;;;;;5091778;28;20112;-62
2022/08/30 11:38:54;;;;;;;3.58;1.48;;;23.20;95.10;;;;;;5073728;28;20043;-61
2022/08/30 11:41:31;;;;;;;5.30;1.48;;;23.30;95.00;;;;;;5092082;28;20373;-63
2022/08/30 11:44:12;;;;;;;1.77;1.27;;;23.50;94.40;;;;;;5091920;28;20044;-62
2022/08/30 11:46:40;;;;;;;3.97;1.42;;;23.40;94.80;;;;;;5091612;28;20068;-62
2022/08/30 11:49:45;;;;;;;2.40;1.45;;;23.50;93.90;;;;;;5091796;28;20036;-61
2022/08/30 11:52:28;;;;;;;2.33;1.25;;;23.50;94.10;;;;;;5086280;28;20047;-61
2022/08/30 11:55:13;;;;;;;1.92;1.23;;;23.60;94.20;;;;;;5092195;28;20101;-61
2022/08/30 11:57:56;;;;;;;5.35;1.58;;;23.60;94.60;;;;;;5090574;28;20040;-61
2022/08/30 12:00:31;;;;;;;3.55;1.20;;;23.60;94.30;;;;;;5092032;28;20107;-61
2022/08/30 12:03:02;;;;;;;3.72;1.05;;;23.60;94.30;;;;;;5091731;28;20123;-61
2022/08/30 12:05:37;;;;;;;2.40;1.30;;;23.80;94.00;;;;;;5092081;28;20040;-60
2022/08/30 12:08:33;;;;;;;3.30;1.30;;;23.90;94.20;;;;;;5090554;28;20047;-61
2022/08/30 12:11:02;;;;;;;3.38;1.30;;;23.90;93.80;;;;;;5091873;28;20040;-62
2022/08/30 12:13:34;;;;;;;2.22;1.42;;;23.90;93.80;;;;;;5091815;28;20044;-62
2022/08/30 12:16:07;;;;;;;2.38;1.38;;;23.90;94.20;;;;;;5091376;28;20036;-61
2022/08/30 12:18:48;;;;;;;4.70;1.50;;;23.90;93.60;;;;;;5091469;28;20036;-62
2022/08/30 12:21:20;;;;;;;2.42;1.20;;;23.90;93.30;;;;;;5087295;28;20547;-61
2022/08/30 12:24:02;;;;;;;3.53;1.25;;;23.80;93.40;;;;;;5091613;28;20078;-62
2022/08/30 12:26:40;;;;;;;3.55;1.40;;;23.70;93.40;;;;;;5091513;28;20031;-61
2022/08/30 12:29:25;;;;;;;4.47;1.55;;;23.70;93.60;;;;;;5077518;28;20040;-62
2022/08/30 12:32:01;;;;;;;2.97;1.20;;;23.70;93.10;;;;;;5091425;28;20115;-62
2022/08/30 12:34:53;;;;;;;3.47;1.38;;;23.70;93.60;;;;;;5091798;28;20064;-61
2022/08/30 12:37:22;;;;;;;2.58;1.40;;;23.60;93.70;;;;;;5083046;28;20104;-62
2022/08/30 12:39:58;;;;;;;3.80;1.20;;;23.70;93.40;;;;;;5077151;28;20028;-61
2022/08/30 12:42:27;;;;;;;2.50;1.17;;;23.70;92.60;;;;;;5095575;28;20047;-62
2022/08/30 12:44:59;;;;;;;2.05;1.30;;;23.90;92.70;;;;;;5095643;28;20032;-61
2022/08/30 12:47:43;;;;;;;2.28;1.35;;;23.80;92.50;;;;;;5095061;28;20097;-62
2022/08/30 12:50:13;;;;;;;2.13;1.38;;;23.90;93.00;;;;;;5095565;28;20071;-61
2022/08/30 12:52:47;;;;;;;2.72;1.50;;;23.80;93.20;;;;;;5095187;28;20047;-62
2022/08/30 12:55:23;;;;;;;2.30;1.15;;;24.00;93.30;;;;;;5077435;28;20062;-62
2022/08/30 12:58:36;;;;;;;2.40;1.50;;;24.00;93.30;;;;;;5094115;28;20043;-59
2022/08/30 13:01:35;;;;;;;3.92;1.40;;;24.00;93.10;;;;;;5029278;28;20041;-61
2022/08/30 13:04:25;;;;;;;2.08;1.23;;;24.10;93.10;;;;;;5061772;28;20055;-62
2022/08/30 13:06:52;;;;;;;1.77;1.25;;;24.10;92.50;;;;;;5083425;28;20461;-62
2022/08/30 13:09:28;;;;;;;1.85;1.05;;;24.20;92.20;;;;;;5094158;28;20052;-61